Norwegian Crown — C6II4 — position and weather

sailwx.info

Track history (hours):
 
Tides and Currents Weather Stations Pressure Air Temp Water Temp Dewpoint Dewpoint Depression Visibility Wind Speed Wind Dir Waves Ship Positions

Norwegian Crown

Operator: Norwegian Cruise Line

Last reported at 2016-Sep-29 00:33 UTC. Time now 2016-Sep-30 16:46 UTC.
Position N 45°55' W 007°19'.

Type: Ship. MMSI: 308785000.

Date/timePositionNaut miles runAvg speedWind from/ knotsBaromVisibWave heightAir tempDewpointWater temp
2016-Sep-29 00:33N 45°55' W 007°19'5116.8
2016-Sep-28 21:33N 46°43' W 006°56'3316.7
2016-Sep-28 19:33N 47°15' W 006°40'5117.1
2016-Sep-28 16:33N 48°04' W 006°22'1414.5
2016-Sep-28 15:33N 48°18' W 006°16'4113.7
2016-Sep-28 12:34N 48°55' W 005°47'5914.7
2016-Sep-28 08:33N 49°24' W 004°29'7014.0
2016-Sep-28 03:34N 49°59' W 002°55'1414.4
2016-Sep-28 02:33N 50°03' W 002°33'1615.8
2016-Sep-28 01:33N 50°08' W 002°10'3517.4
2016-Sep-27 23:33N 50°18' W 001°17'6215.4
2016-Sep-27 19:32N 50°34' E 000°16'5210.1
2016-Sep-27 14:26N 51°07' E 001°19'0 0.0
2016-Sep-27 13:26N 51°07' E 001°19'0 0.0
2016-Sep-27 10:26N 51°07' E 001°19'17 1.7
2016-Sep-27 00:33N 50°50' E 001°22'45 9.9
2016-Sep-26 20:03N 50°24' E 000°26'611.0
2016-Sep-26 19:32N 50°22' E 000°17'11814.3
2016-Sep-26 11:18N 49°52' W 002°40'13315.2
2016-Sep-26 02:33N 48°46' W 005°38'50210.6
2016-Sep-24 03:11N 40°45' W 009°04'1014.6
2016-Sep-24 02:31N 40°37' W 009°09'10214.6
2016-Sep-23 19:34N 38°59' W 009°45'2412.0
2016-Sep-23 17:33N 38°37' W 009°32'1413.9
2016-Sep-23 16:33N 38°41' W 009°15'6 5.5
2016-Sep-23 15:28N 38°43' W 009°07'0 0.0
2016-Sep-23 13:10N 38°43' W 009°07'0 0.0
2016-Sep-23 06:33N 38°43' W 009°07'16 8.2
2016-Sep-23 04:33N 38°35' W 009°26'1010.2
2016-Sep-23 03:33N 38°27' W 009°35'1010.2
2016-Sep-23 02:33N 38°20' W 009°44'1010.4
2016-Sep-23 01:33N 38°13' W 009°53'1111.0
2016-Sep-23 00:32N 38°05' W 010°03'1210.7
2016-Sep-22 23:23N 37°56' W 010°14'  
2016-Sep-19 00:33N 36°31' W 023°51'  
Track history (hours):
 
Tides and Currents Weather Stations Pressure Air Temp Water Temp Dewpoint Dewpoint Depression Visibility Wind Speed Wind Dir Waves Ship Positions

Norwegian Crown

Operator: Norwegian Cruise Line

Last reported at 2016-Sep-29 00:33 UTC. Time now 2016-Sep-30 16:46 UTC.
Position N 45°55' W 007°19'.

Type: Ship. MMSI: 308785000.

Date/timePositionNaut miles runAvg speedWind from/ knotsBaromVisibWave heightAir tempDewpointWater temp
2016-Sep-29 00:33N 45°55' W 007°19'5116.8
2016-Sep-28 21:33N 46°43' W 006°56'3316.7
2016-Sep-28 19:33N 47°15' W 006°40'5117.1
2016-Sep-28 16:33N 48°04' W 006°22'1414.5
2016-Sep-28 15:33N 48°18' W 006°16'4113.7
2016-Sep-28 12:34N 48°55' W 005°47'5914.7
2016-Sep-28 08:33N 49°24' W 004°29'7014.0
2016-Sep-28 03:34N 49°59' W 002°55'1414.4
2016-Sep-28 02:33N 50°03' W 002°33'1615.8
2016-Sep-28 01:33N 50°08' W 002°10'3517.4
2016-Sep-27 23:33N 50°18' W 001°17'6215.4
2016-Sep-27 19:32N 50°34' E 000°16'5210.1
2016-Sep-27 14:26N 51°07' E 001°19'0 0.0
2016-Sep-27 13:26N 51°07' E 001°19'0 0.0
2016-Sep-27 10:26N 51°07' E 001°19'17 1.7
2016-Sep-27 00:33N 50°50' E 001°22'45 9.9
2016-Sep-26 20:03N 50°24' E 000°26'611.0
2016-Sep-26 19:32N 50°22' E 000°17'11814.3
2016-Sep-26 11:18N 49°52' W 002°40'13315.2
2016-Sep-26 02:33N 48°46' W 005°38'50210.6
2016-Sep-24 03:11N 40°45' W 009°04'1014.6
2016-Sep-24 02:31N 40°37' W 009°09'10214.6
2016-Sep-23 19:34N 38°59' W 009°45'2412.0
2016-Sep-23 17:33N 38°37' W 009°32'1413.9
2016-Sep-23 16:33N 38°41' W 009°15'6 5.5
2016-Sep-23 15:28N 38°43' W 009°07'0 0.0
2016-Sep-23 13:10N 38°43' W 009°07'0 0.0
2016-Sep-23 06:33N 38°43' W 009°07'16 8.2
2016-Sep-23 04:33N 38°35' W 009°26'1010.2
2016-Sep-23 03:33N 38°27' W 009°35'1010.2
2016-Sep-23 02:33N 38°20' W 009°44'1010.4
2016-Sep-23 01:33N 38°13' W 009°53'1111.0
2016-Sep-23 00:32N 38°05' W 010°03'1210.7
2016-Sep-22 23:23N 37°56' W 010°14'  
2016-Sep-19 00:33N 36°31' W 023°51'  

Dump ship's entire track history